createdAt,value
2022-11-27T00:01:43.406Z,101691.22
2022-11-27T00:06:42.384Z,101687.47
2022-11-27T00:11:41.337Z,101693.53
2022-11-27T00:16:40.917Z,101688.97
2022-11-27T00:21:39.800Z,101685.88
2022-11-27T00:26:38.705Z,101671.75
2022-11-27T00:31:38.119Z,101668.72
2022-11-27T00:36:38.291Z,101671.59
2022-11-27T00:41:37.823Z,101666.03
2022-11-27T00:46:36.704Z,101659.91
2022-11-27T00:51:36.001Z,101649.63
2022-11-27T00:56:37.996Z,101657.78
2022-11-27T01:01:42.647Z,101665.94
2022-11-27T01:06:41.573Z,101663.38
2022-11-27T01:11:41.139Z,101649.97
2022-11-27T01:16:43.110Z,101646.72
2022-11-27T01:21:42.526Z,101650.53
2022-11-27T01:26:42.332Z,101638.72
2022-11-27T01:31:41.311Z,101625.13
2022-11-27T01:36:40.075Z,101628.81
2022-11-27T01:41:40.011Z,101623.69
2022-11-27T01:46:48.616Z,101625.09
2022-11-27T01:51:53.555Z,101606.81
2022-11-27T01:56:56.288Z,101602.47
2022-11-27T02:01:55.079Z,101603.06
2022-11-27T02:06:57.479Z,101587.91
2022-11-27T02:12:07.971Z,101580.19
2022-11-27T02:17:09.857Z,101579.56
2022-11-27T02:22:15.885Z,101574.66
2022-11-27T02:27:36.438Z,101566.38
2022-11-27T02:32:47.081Z,101567.31
2022-11-27T02:38:00.054Z,101562.13
2022-11-27T02:43:20.350Z,101557.38
2022-11-27T02:48:24.226Z,101556.78
2022-11-27T02:53:52.237Z,101564.31
2022-11-27T02:58:51.164Z,101565.66
2022-11-27T03:03:55.385Z,101573.13
2022-11-27T03:09:08.680Z,101575.88
2022-11-27T03:14:10.383Z,101575.91
2022-11-27T03:19:41.348Z,101583.63
2022-11-27T03:24:40.316Z,101590.84
2022-11-27T03:29:53.019Z,101577.25
2022-11-27T03:34:52.267Z,101572.22
2022-11-27T03:39:51.643Z,101580.91
2022-11-27T03:45:08.640Z,101578.09
2022-11-27T03:50:48.879Z,101571.91
2022-11-27T03:55:53.413Z,101561.19
2022-11-27T04:00:53.974Z,101560.69
2022-11-27T04:05:53.105Z,101561.31
2022-11-27T04:10:51.828Z,101561.84
2022-11-27T04:15:50.630Z,101557.16
2022-11-27T04:20:49.349Z,101563.34
2022-11-27T04:25:49.073Z,101562.84
2022-11-27T04:30:52.156Z,101556.78
2022-11-27T04:35:51.776Z,101568.19
2022-11-27T04:40:53.438Z,101565.69
2022-11-27T04:45:52.147Z,101569.03
2022-11-27T04:50:50.876Z,101567.72
2022-11-27T04:55:51.388Z,101568.88
2022-11-27T05:00:50.169Z,101565.44
2022-11-27T05:05:58.855Z,101561.66
2022-11-27T05:11:05.829Z,101566.28
2022-11-27T05:16:05.879Z,101556.75
2022-11-27T05:21:08.636Z,101563.53
2022-11-27T05:26:07.393Z,101571.19
2022-11-27T05:31:06.230Z,101569.09
2022-11-27T05:36:05.293Z,101585.06
2022-11-27T05:41:04.025Z,101584.97
2022-11-27T05:46:07.327Z,101585.22
2022-11-27T05:51:06.336Z,101578.50
2022-11-27T05:56:14.143Z,101585.09
2022-11-27T06:01:15.686Z,101578.00
2022-11-27T06:06:17.094Z,101575.09
2022-11-27T06:11:19.121Z,101577.34
2022-11-27T06:16:24.378Z,101564.56
2022-11-27T06:21:25.644Z,101568.06
2022-11-27T06:26:27.369Z,101565.50
2022-11-27T06:31:29.153Z,101555.88
2022-11-27T06:36:31.698Z,101555.63
2022-11-27T06:41:30.580Z,101562.97
2022-11-27T06:46:30.161Z,101549.56
2022-11-27T06:51:33.256Z,101543.19
2022-11-27T06:56:32.480Z,101543.03
2022-11-27T07:01:31.931Z,101536.88
2022-11-27T07:06:30.835Z,101532.81
2022-11-27T07:11:32.033Z,101533.66
2022-11-27T07:16:34.034Z,101527.53
2022-11-27T07:21:33.209Z,101521.38
2022-11-27T07:26:32.127Z,101530.06
2022-11-27T07:31:31.240Z,101538.72
2022-11-27T07:36:31.170Z,101546.78
2022-11-27T07:41:33.937Z,101548.59
2022-11-27T07:46:35.536Z,101532.72
2022-11-27T07:51:34.463Z,101540.59
2022-11-27T07:56:33.185Z,101513.34
2022-11-27T08:01:32.062Z,101501.06
2022-11-27T08:06:30.910Z,101498.22
2022-11-27T08:11:33.026Z,101493.84
2022-11-27T08:16:32.893Z,101497.41
2022-11-27T08:21:33.032Z,101489.56
2022-11-27T08:26:31.838Z,101485.63
2022-11-27T08:31:30.645Z,101480.38
2022-11-27T08:36:29.538Z,101481.38
2022-11-27T08:41:28.238Z,101479.56
2022-11-27T08:46:27.964Z,101475.69
2022-11-27T08:51:27.084Z,101479.53
2022-11-27T08:56:26.325Z,101478.34
2022-11-27T09:01:31.231Z,101478.47
2022-11-27T09:06:33.186Z,101485.00
2022-11-27T09:11:33.618Z,101480.84
2022-11-27T09:16:32.973Z,101472.81
2022-11-27T09:21:31.914Z,101461.31
2022-11-27T09:26:31.172Z,101458.16
2022-11-27T09:31:30.180Z,101455.66
2022-11-27T09:36:29.020Z,101437.50
2022-11-27T09:41:52.404Z,101421.34
2022-11-27T09:46:52.599Z,101420.00
2022-11-27T09:51:58.583Z,101405.53
2022-11-27T09:56:58.714Z,101398.88
2022-11-27T10:01:57.712Z,101382.00
2022-11-27T10:07:38.922Z,101381.84
2022-11-27T10:13:00.656Z,101364.84
2022-11-27T10:18:17.987Z,101356.53
2022-11-27T10:23:46.323Z,101339.25
2022-11-27T10:29:11.451Z,101332.97
2022-11-27T10:34:28.690Z,101341.75
2022-11-27T10:39:49.419Z,101332.66
2022-11-27T10:45:00.463Z,101328.94
2022-11-27T10:49:59.638Z,101329.47
2022-11-27T10:55:03.499Z,101313.03
2022-11-27T11:00:15.112Z,101317.06
2022-11-27T11:10:57.814Z,101300.00
2022-11-27T11:16:09.718Z,101303.56
2022-11-27T11:21:17.368Z,101295.00
2022-11-27T11:26:40.357Z,101287.97
2022-11-27T11:31:41.270Z,101288.16
2022-11-27T11:36:41.466Z,101299.72
2022-11-27T11:41:40.252Z,101304.69
2022-11-27T11:46:40.117Z,101300.00
2022-11-27T11:51:57.567Z,101286.03
2022-11-27T11:57:00.244Z,101290.63
2022-11-27T12:02:25.368Z,101286.69
2022-11-27T12:07:54.246Z,101284.78
2022-11-27T12:13:12.121Z,101280.03
2022-11-27T12:18:13.457Z,101274.41
2022-11-27T12:23:18.086Z,101273.09
2022-11-27T12:28:20.042Z,101283.56
2022-11-27T12:33:33.580Z,101269.56
2022-11-27T12:38:50.461Z,101258.22
2022-11-27T12:43:56.163Z,101246.28
2022-11-27T12:49:05.544Z,101227.22
2022-11-27T12:54:10.132Z,101228.25
2022-11-27T12:59:39.354Z,101233.59
2022-11-27T13:04:53.789Z,101218.63
2022-11-27T13:10:21.769Z,101208.31
2022-11-27T13:15:40.766Z,101186.09
2022-11-27T13:20:46.230Z,101176.75
2022-11-27T13:25:51.766Z,101164.16
2022-11-27T13:30:53.479Z,101167.25
2022-11-27T13:35:54.975Z,101163.06
2022-11-27T13:40:58.579Z,101147.06
2022-11-27T13:46:07.275Z,101143.34
2022-11-27T13:51:08.484Z,101141.47
2022-11-27T13:56:08.614Z,101141.88
2022-11-27T14:01:22.547Z,101137.25
2022-11-27T14:06:31.850Z,101142.75
2022-11-27T14:11:37.165Z,101145.19
2022-11-27T14:16:37.189Z,101143.34
2022-11-27T14:21:41.893Z,101142.88
2022-11-27T14:26:41.349Z,101141.25
2022-11-27T14:31:40.307Z,101136.50
2022-11-27T14:36:41.192Z,101128.28
2022-11-27T14:41:40.002Z,101116.63
2022-11-27T14:46:38.870Z,101118.38
2022-11-27T14:51:37.842Z,101129.25
2022-11-27T14:56:41.378Z,101115.81
2022-11-27T15:01:40.133Z,101111.94
2022-11-27T15:06:45.515Z,101107.25
2022-11-27T15:11:56.012Z,101106.59
2022-11-27T15:16:56.839Z,101105.78
2022-11-27T15:21:57.221Z,101099.63
2022-11-27T15:27:06.559Z,101100.84
2022-11-27T15:32:23.534Z,101095.31
2022-11-27T15:37:31.021Z,101094.34
2022-11-27T15:42:30.379Z,101087.28
2022-11-27T15:47:33.809Z,101086.09
2022-11-27T15:52:33.382Z,101074.53
2022-11-27T15:57:32.229Z,101074.66
2022-11-27T16:02:31.169Z,101064.38
2022-11-27T16:07:30.834Z,101062.47
2022-11-27T16:12:29.614Z,101047.06
2022-11-27T16:17:28.428Z,101047.91
2022-11-27T16:22:27.186Z,101036.59
2022-11-27T16:27:29.227Z,101031.22
2022-11-27T16:32:30.303Z,101041.31
2022-11-27T16:37:29.560Z,101036.38
2022-11-27T16:42:28.821Z,101036.13
2022-11-27T16:47:33.656Z,101036.22
2022-11-27T16:52:39.335Z,101035.13
2022-11-27T16:57:38.122Z,101037.53
2022-11-27T17:02:37.944Z,101022.44
2022-11-27T17:07:36.791Z,101031.59
2022-11-27T17:12:35.662Z,101013.97
2022-11-27T17:17:39.968Z,101000.56
2022-11-27T17:22:39.690Z,101006.09
2022-11-27T17:27:38.642Z,101001.38
2022-11-27T17:32:37.421Z,100990.84
2022-11-27T17:37:36.858Z,100988.81
2022-11-27T17:42:35.629Z,100980.03
2022-11-27T17:47:34.495Z,100969.41
2022-11-27T17:52:33.300Z,100955.28
2022-11-27T17:57:33.377Z,100961.63
2022-11-27T18:02:33.268Z,100953.31
2022-11-27T18:07:32.126Z,100949.09
2022-11-27T18:12:30.945Z,100944.28
2022-11-27T18:17:30.524Z,100932.09
2022-11-27T18:22:31.181Z,100919.69
2022-11-27T18:27:30.007Z,100914.59
2022-11-27T18:32:28.713Z,100903.25
2022-11-27T18:37:27.515Z,100895.69
2022-11-27T18:42:26.943Z,100899.00
2022-11-27T18:47:25.765Z,100884.50
2022-11-27T18:52:24.737Z,100881.34
2022-11-27T18:57:24.183Z,100883.31
2022-11-27T19:02:23.077Z,100881.84
2022-11-27T19:07:22.771Z,100884.84
2022-11-27T19:12:21.581Z,100886.34
2022-11-27T19:17:21.720Z,100888.94
2022-11-27T19:22:21.015Z,100887.75
2022-11-27T19:27:19.884Z,100882.53
2022-11-27T19:32:19.812Z,100878.53
2022-11-27T19:37:33.610Z,100889.13
2022-11-27T19:42:33.254Z,100890.97
2022-11-27T19:47:32.092Z,100881.06
2022-11-27T19:52:30.958Z,100873.63
2022-11-27T19:57:30.436Z,100866.31
2022-11-27T20:02:30.520Z,100871.88
2022-11-27T20:07:30.402Z,100863.19
2022-11-27T20:12:30.946Z,100855.41
2022-11-27T20:17:30.370Z,100843.63
2022-11-27T20:22:30.609Z,100838.22
2022-11-27T20:27:29.700Z,100841.66
2022-11-27T20:32:29.429Z,100829.41
2022-11-27T20:37:28.784Z,100831.47
2022-11-27T20:42:27.578Z,100831.53
2022-11-27T20:47:26.461Z,100822.66
2022-11-27T20:52:26.602Z,100819.63
2022-11-27T20:57:25.414Z,100815.81
2022-11-27T21:02:24.245Z,100805.03
2022-11-27T21:07:23.082Z,100795.00
2022-11-27T21:12:22.405Z,100796.66
2022-11-27T21:17:21.373Z,100793.91
2022-11-27T21:22:20.817Z,100787.16
2022-11-27T21:27:20.342Z,100790.28
2022-11-27T21:32:22.553Z,100788.41
2022-11-27T21:37:21.601Z,100778.94
2022-11-27T21:42:20.461Z,100773.09
2022-11-27T21:47:19.454Z,100770.22
2022-11-27T21:52:18.364Z,100761.31
2022-11-27T21:57:17.410Z,100753.28
2022-11-27T22:02:16.245Z,100743.59
2022-11-27T22:07:17.842Z,100753.44
2022-11-27T22:12:16.673Z,100749.44
2022-11-27T22:17:19.219Z,100737.69
2022-11-27T22:22:18.104Z,100734.53
2022-11-27T22:27:16.888Z,100729.81
2022-11-27T22:32:15.816Z,100719.09
2022-11-27T22:37:14.492Z,100714.19
2022-11-27T22:42:13.464Z,100708.56
2022-11-27T22:47:12.206Z,100701.56
2022-11-27T22:52:11.075Z,100692.38
2022-11-27T22:57:10.237Z,100686.94
2022-11-27T23:02:09.210Z,100682.78
2022-11-27T23:07:08.017Z,100676.75
2022-11-27T23:12:06.976Z,100672.28
2022-11-27T23:17:05.775Z,100669.41
2022-11-27T23:22:04.534Z,100667.75
2022-11-27T23:27:03.336Z,100657.72
2022-11-27T23:32:02.165Z,100649.00
2022-11-27T23:37:00.954Z,100655.31
2022-11-27T23:41:59.830Z,100651.06
2022-11-27T23:46:58.562Z,100643.00
2022-11-27T23:51:58.792Z,100643.13
2022-11-27T23:56:57.681Z,100642.13
